Time;durP1;ratioP1;P1;durP2;ratioP2;P2;SDS_P1;SDS_P2;PMS_P1;PMS_P2;Temp;Humidity;BMP_temperature;BMP_pressure;BME280_temperature;BME280_humidity;BME280_pressure;Samples;Min_cycle;Max_cycle;Signal;HPM_P1;HPM_P2
2022/04/15 00:02:25;;;;;;;0.10;0.10;;;15.60;85.10;;;;;;5054712;28;20025;-73
2022/04/15 00:04:51;;;;;;;0.28;0.28;;;15.60;85.40;;;;;;5054553;28;20029;-73
2022/04/15 00:07:17;;;;;;;0.43;0.43;;;15.60;85.40;;;;;;5036534;28;20411;-73
2022/04/15 00:09:43;;;;;;;3.53;1.20;;;15.50;85.60;;;;;;5036686;28;20036;-73
2022/04/15 00:12:17;;;;;;;0.93;0.90;;;15.60;85.80;;;;;;5054475;28;20096;-73
2022/04/15 00:14:43;;;;;;;3.88;2.00;;;15.60;86.00;;;;;;5054558;28;20497;-73
2022/04/15 00:17:09;;;;;;;0.10;0.10;;;15.50;86.30;;;;;;5054183;28;20021;-73
2022/04/15 00:19:35;;;;;;;0.20;0.20;;;15.40;87.80;;;;;;5054334;28;20029;-73
2022/04/15 00:22:00;;;;;;;0.22;0.22;;;15.40;87.30;;;;;;5036386;28;20021;-75
2022/04/15 00:24:26;;;;;;;0.30;0.30;;;15.30;87.70;;;;;;5054378;28;20392;-73
2022/04/15 00:26:52;;;;;;;0.90;0.90;;;15.20;88.20;;;;;;5054268;28;20028;-73
2022/04/15 00:29:18;;;;;;;0.10;0.10;;;15.20;88.60;;;;;;5054299;28;20426;-73
2022/04/15 00:31:43;;;;;;;0.30;0.30;;;15.30;88.60;;;;;;5054163;28;20029;-73
2022/04/15 00:34:09;;;;;;;0.10;0.10;;;15.30;88.40;;;;;;5054178;28;20087;-73
2022/04/15 00:36:35;;;;;;;0.20;0.20;;;15.10;89.40;;;;;;5035880;28;20029;-73
2022/04/15 00:39:01;;;;;;;0.20;0.20;;;15.10;89.70;;;;;;5054090;28;20028;-73
2022/04/15 00:41:26;;;;;;;0.30;0.30;;;15.00;90.30;;;;;;5036232;28;20107;-73
2022/04/15 00:43:54;;;;;;;1.77;1.65;;;15.10;90.50;;;;;;5054022;28;20555;-73
2022/04/15 00:46:19;;;;;;;3.33;2.45;;;15.00;90.40;;;;;;5053599;28;20029;-73
2022/04/15 00:48:45;;;;;;;0.10;0.10;;;14.80;91.10;;;;;;5053921;28;20504;-73
2022/04/15 00:51:11;;;;;;;0.20;0.20;;;14.70;91.80;;;;;;5053695;28;20461;-73
2022/04/15 00:53:39;;;;;;;0.98;0.93;;;14.80;92.20;;;;;;5053808;28;20032;-73
2022/04/15 00:56:07;;;;;;;0.20;0.20;;;14.90;92.20;;;;;;5053432;28;20127;-73
2022/04/15 00:58:35;;;;;;;0.20;0.20;;;14.80;92.80;;;;;;5053717;28;20033;-73
2022/04/15 01:01:01;;;;;;;0.20;0.20;;;14.90;93.60;;;;;;5053581;28;20025;-73
2022/04/15 01:03:29;;;;;;;0.10;0.10;;;14.90;93.80;;;;;;5053707;28;20067;-73
2022/04/15 01:05:58;;;;;;;0.20;0.20;;;15.10;94.00;;;;;;5035380;28;20028;-73
2022/04/15 01:08:28;;;;;;;0.20;0.20;;;15.30;93.50;;;;;;5053898;28;20028;-73
2022/04/15 01:11:00;;;;;;;0.20;0.20;;;15.40;92.90;;;;;;5053566;28;20530;-73
2022/04/15 01:13:26;;;;;;;0.10;0.10;;;15.40;93.40;;;;;;5053472;28;20024;-73
2022/04/15 01:15:55;;;;;;;0.10;0.10;;;15.50;93.60;;;;;;5053163;28;20492;-73
2022/04/15 01:18:21;;;;;;;0.10;0.10;;;15.20;93.40;;;;;;5053215;28;20029;-73
2022/04/15 01:20:52;;;;;;;0.20;0.20;;;15.30;94.50;;;;;;5053290;28;20059;-73
2022/04/15 01:23:19;;;;;;;0.75;0.65;;;15.30;94.20;;;;;;5053167;28;20025;-73
2022/04/15 01:25:44;;;;;;;2.08;1.92;;;15.00;95.20;;;;;;5052997;28;20228;-73
2022/04/15 01:28:10;;;;;;;0.10;0.10;;;14.90;96.20;;;;;;5053144;28;20017;-73
2022/04/15 01:30:36;;;;;;;0.10;0.10;;;14.90;97.10;;;;;;5018081;28;20047;-73
2022/04/15 01:33:03;;;;;;;0.45;0.45;;;14.80;98.30;;;;;;5053592;28;20024;-73
2022/04/15 01:35:29;;;;;;;0.10;0.10;;;14.80;99.40;;;;;;5052909;28;20029;-73
2022/04/15 01:37:57;;;;;;;2.50;1.23;;;14.80;99.90;;;;;;5035454;28;20039;-73
2022/04/15 01:40:23;;;;;;;0.20;0.20;;;14.70;99.90;;;;;;5035358;28;20029;-73
2022/04/15 01:42:49;;;;;;;1.77;1.67;;;14.60;99.90;;;;;;5052820;28;20024;-73
2022/04/15 01:45:15;;;;;;;1.00;1.00;;;14.50;99.90;;;;;;5052569;28;20037;-73
2022/04/15 01:47:41;;;;;;;1.20;1.10;;;14.50;99.90;;;;;;5034898;28;20013;-73
2022/04/15 01:50:08;;;;;;;2.67;2.47;;;14.40;99.90;;;;;;5052697;28;20507;-73
2022/04/15 01:52:34;;;;;;;0.30;0.30;;;14.40;99.90;;;;;;5052647;28;20106;-73
2022/04/15 01:55:00;;;;;;;0.10;0.10;;;14.30;99.90;;;;;;5034731;28;20068;-73
2022/04/15 01:57:26;;;;;;;1.85;1.75;;;14.30;99.90;;;;;;5052363;28;20045;-73
2022/04/15 01:59:52;;;;;;;0.10;0.10;;;14.30;99.90;;;;;;5034534;28;20114;-73
2022/04/15 02:02:18;;;;;;;0.10;0.10;;;14.40;99.90;;;;;;5034845;28;20104;-73
2022/04/15 02:04:44;;;;;;;0.10;0.10;;;14.50;99.90;;;;;;5052363;28;20032;-73
2022/04/15 02:07:10;;;;;;;0.28;0.28;;;14.70;99.90;;;;;;5034309;28;20553;-73
2022/04/15 02:09:35;;;;;;;0.60;0.60;;;14.60;99.90;;;;;;5052328;28;20021;-73
2022/04/15 02:12:01;;;;;;;3.20;0.93;;;14.50;99.90;;;;;;5052422;28;20021;-73
2022/04/15 02:14:27;;;;;;;0.75;0.52;;;14.30;99.90;;;;;;5052099;28;20033;-73
2022/04/15 02:16:53;;;;;;;0.10;0.10;;;14.00;99.90;;;;;;5052077;28;20059;-73
2022/04/15 02:19:22;;;;;;;0.32;0.32;;;14.00;99.90;;;;;;5052238;28;20438;-73
2022/04/15 02:21:49;;;;;;;0.57;0.57;;;13.80;99.90;;;;;;5052193;28;20496;-73
2022/04/15 02:24:15;;;;;;;2.65;1.00;;;13.60;99.90;;;;;;5052170;28;20029;-72
2022/04/15 02:26:42;;;;;;;0.70;0.35;;;13.50;99.90;;;;;;5051786;28;20051;-73
2022/04/15 02:29:07;;;;;;;0.10;0.10;;;13.40;99.90;;;;;;5052015;28;20028;-73
2022/04/15 02:31:33;;;;;;;0.10;0.10;;;13.40;99.90;;;;;;5052069;28;20029;-73
2022/04/15 02:33:59;;;;;;;0.20;0.20;;;13.40;99.90;;;;;;5052057;28;20021;-73
2022/04/15 02:36:25;;;;;;;0.17;0.17;;;13.50;99.90;;;;;;5033904;28;20044;-73
2022/04/15 02:38:51;;;;;;;0.10;0.10;;;13.60;99.90;;;;;;5034246;28;20032;-73
2022/04/15 02:41:17;;;;;;;0.10;0.10;;;13.80;99.90;;;;;;5033594;28;20476;-73
2022/04/15 02:43:43;;;;;;;10.90;2.03;;;13.90;99.90;;;;;;5051552;28;20025;-73
2022/04/15 02:46:10;;;;;;;0.10;0.10;;;13.90;99.90;;;;;;5051639;28;20070;-73
2022/04/15 02:48:36;;;;;;;0.90;0.90;;;14.00;99.90;;;;;;5017573;28;20036;-73
2022/04/15 02:51:02;;;;;;;0.80;0.80;;;13.90;99.90;;;;;;5033984;28;20384;-73
2022/04/15 02:53:29;;;;;;;0.30;0.30;;;14.10;99.90;;;;;;5051841;28;20028;-73
2022/04/15 02:55:55;;;;;;;0.10;0.10;;;14.10;99.90;;;;;;5033645;28;20041;-71
2022/04/15 02:58:21;;;;;;;0.10;0.10;;;14.10;99.90;;;;;;5051638;28;20029;-70
2022/04/15 03:00:47;;;;;;;0.30;0.30;;;14.30;99.90;;;;;;5033968;28;20029;-71
2022/04/15 03:03:13;;;;;;;1.05;0.95;;;14.10;99.90;;;;;;5051766;28;20029;-70
2022/04/15 03:05:39;;;;;;;0.10;0.10;;;13.90;99.90;;;;;;5051359;28;20033;-71
2022/04/15 03:08:06;;;;;;;0.15;0.13;;;13.50;99.90;;;;;;5051687;28;20521;-71
2022/04/15 03:10:32;;;;;;;0.10;0.10;;;13.80;99.90;;;;;;5033854;28;20033;-71
2022/04/15 03:12:58;;;;;;;0.20;0.20;;;13.70;99.90;;;;;;5017314;28;20074;-71
2022/04/15 03:15:23;;;;;;;0.10;0.10;;;13.90;99.90;;;;;;5051613;28;20025;-71
2022/04/15 03:17:49;;;;;;;0.30;0.30;;;14.00;99.90;;;;;;5051511;28;20033;-71
2022/04/15 03:20:15;;;;;;;0.10;0.10;;;14.10;99.90;;;;;;5033789;28;20029;-73
2022/04/15 03:22:43;;;;;;;0.88;0.88;;;13.90;99.90;;;;;;5051475;28;20036;-73
2022/04/15 03:25:17;;;;;;;0.10;0.10;;;13.70;99.90;;;;;;5051196;28;20060;-73
2022/04/15 03:27:44;;;;;;;0.80;0.80;;;13.70;99.90;;;;;;5051380;28;20380;-73
2022/04/15 03:30:14;;;;;;;0.20;0.20;;;13.70;99.90;;;;;;5051576;28;20495;-73
2022/04/15 03:32:51;;;;;;;0.10;0.10;;;13.60;99.90;;;;;;5051617;28;20427;-73
2022/04/15 03:35:21;;;;;;;0.10;0.10;;;13.60;99.90;;;;;;5051449;28;20036;-73
2022/04/15 03:37:48;;;;;;;0.10;0.10;;;13.70;99.90;;;;;;5033325;28;20119;-73
2022/04/15 03:40:14;;;;;;;0.10;0.10;;;13.70;99.90;;;;;;5051526;28;20083;-73
2022/04/15 03:42:56;;;;;;;0.10;0.10;;;13.60;99.90;;;;;;5033591;28;20025;-73
2022/04/15 03:45:22;;;;;;;;;;;13.40;99.90;;;;;;5033868;28;20029;-73
2022/04/15 03:47:49;;;;;;;0.10;0.10;;;13.40;99.90;;;;;;5033476;28;19905;-73
2022/04/15 03:50:15;;;;;;;0.50;0.50;;;13.40;99.90;;;;;;5033467;28;20037;-73
2022/04/15 03:52:45;;;;;;;0.10;0.10;;;13.60;99.90;;;;;;5033522;28;20025;-73
2022/04/15 03:55:18;;;;;;;0.90;0.73;;;13.70;99.90;;;;;;5036763;28;20071;-73
2022/04/15 03:57:45;;;;;;;0.10;0.10;;;13.70;99.90;;;;;;5054763;28;20029;-73
2022/04/15 04:00:13;;;;;;;0.30;0.30;;;13.50;99.90;;;;;;5054802;28;20569;-73
2022/04/15 04:02:41;;;;;;;0.10;0.10;;;13.30;99.90;;;;;;5054716;28;20317;-73
2022/04/15 04:05:08;;;;;;;0.20;0.20;;;13.30;99.90;;;;;;5054776;28;20465;-73
2022/04/15 04:07:34;;;;;;;0.10;0.10;;;13.20;99.90;;;;;;5036596;28;20024;-73
2022/04/15 04:09:59;;;;;;;0.30;0.30;;;13.10;99.90;;;;;;5054602;28;20085;-73
2022/04/15 04:12:29;;;;;;;3.05;2.80;;;13.20;99.90;;;;;;5036622;28;20024;-73
2022/04/15 04:14:55;;;;;;;0.17;0.17;;;13.40;99.90;;;;;;5054617;28;20025;-71
2022/04/15 04:17:21;;;;;;;0.10;0.10;;;13.60;99.90;;;;;;5054181;28;20113;-71
2022/04/15 04:19:47;;;;;;;1.40;0.60;;;13.80;99.90;;;;;;5054407;28;20032;-71
2022/04/15 04:22:13;;;;;;;0.10;0.10;;;13.90;99.90;;;;;;5036439;28;20448;-71
2022/04/15 04:24:38;;;;;;;0.10;0.10;;;13.80;99.90;;;;;;5054178;28;20049;-70
2022/04/15 04:27:04;;;;;;;0.10;0.10;;;13.70;99.90;;;;;;5036352;28;20050;-71
2022/04/15 04:29:30;;;;;;;0.20;0.20;;;13.80;99.90;;;;;;5054263;28;20422;-71
2022/04/15 04:31:55;;;;;;;1.02;0.85;;;13.70;99.90;;;;;;5054096;28;20017;-71
2022/04/15 04:34:21;;;;;;;0.10;0.10;;;13.60;99.90;;;;;;5054257;28;20021;-71
2022/04/15 04:36:47;;;;;;;0.20;0.20;;;13.50;99.90;;;;;;5053961;28;20055;-71
2022/04/15 04:39:13;;;;;;;0.10;0.10;;;13.60;99.90;;;;;;5036125;28;20025;-70
2022/04/15 04:41:39;;;;;;;0.00;0.00;;;13.40;99.90;;;;;;5054044;28;20392;-71
2022/04/15 04:44:05;;;;;;;0.10;0.10;;;13.40;99.90;;;;;;5054013;28;20361;-70
2022/04/15 04:46:32;;;;;;;0.10;0.10;;;13.40;99.90;;;;;;5035799;28;20099;-71
2022/04/15 04:48:58;;;;;;;0.10;0.10;;;13.60;99.90;;;;;;5054125;28;20021;-71
2022/04/15 04:51:24;;;;;;;0.10;0.10;;;13.60;99.90;;;;;;5053841;28;20092;-71
2022/04/15 04:53:50;;;;;;;0.10;0.10;;;13.60;99.90;;;;;;5053680;28;20031;-71
2022/04/15 04:56:15;;;;;;;0.20;0.20;;;13.70;99.90;;;;;;5035674;28;20549;-71
2022/04/15 04:58:42;;;;;;;0.20;0.20;;;13.70;99.90;;;;;;5053772;28;20025;-71
2022/04/15 05:01:08;;;;;;;2.05;1.95;;;13.60;99.90;;;;;;5053600;28;20108;-70
2022/04/15 05:03:34;;;;;;;0.32;0.32;;;13.50;99.90;;;;;;5035818;28;20107;-71
2022/04/15 05:05:59;;;;;;;2.20;1.65;;;13.40;99.90;;;;;;5052403;28;20033;-71
2022/04/15 05:08:25;;;;;;;0.10;0.10;;;13.30;99.90;;;;;;5053521;28;20025;-70
2022/04/15 05:10:51;;;;;;;0.30;0.30;;;13.20;99.90;;;;;;5053493;28;20053;-70
2022/04/15 05:13:16;;;;;;;0.10;0.10;;;13.00;99.90;;;;;;5053832;28;20029;-70
2022/04/15 05:15:42;;;;;;;0.73;0.73;;;13.10;99.90;;;;;;5053004;28;20029;-71
2022/04/15 05:18:08;;;;;;;0.10;0.10;;;13.20;99.90;;;;;;5053332;28;20127;-71
2022/04/15 05:20:34;;;;;;;0.10;0.10;;;13.20;99.90;;;;;;5053320;28;20025;-71
2022/04/15 05:23:00;;;;;;;0.10;0.10;;;13.20;99.90;;;;;;5053187;28;20063;-71
2022/04/15 05:25:26;;;;;;;0.10;0.10;;;13.30;99.90;;;;;;5052862;28;20068;-71
2022/04/15 05:27:52;;;;;;;0.08;0.08;;;13.40;99.90;;;;;;5035246;28;20017;-71
2022/04/15 05:30:18;;;;;;;0.10;0.10;;;13.40;99.90;;;;;;5053064;28;20048;-71
2022/04/15 05:32:44;;;;;;;0.00;0.00;;;13.40;99.90;;;;;;5018871;28;20056;-71
2022/04/15 05:35:10;;;;;;;0.10;0.10;;;13.50;99.90;;;;;;5052904;28;20036;-71
2022/04/15 05:37:36;;;;;;;0.10;0.10;;;13.60;99.90;;;;;;5052744;28;20029;-72
2022/04/15 05:40:02;;;;;;;0.20;0.20;;;13.80;99.90;;;;;;5052992;28;20053;-72
2022/04/15 05:42:28;;;;;;;1.35;1.08;;;13.80;99.90;;;;;;5034912;28;20039;-72
2022/04/15 05:44:54;;;;;;;0.20;0.20;;;13.70;99.90;;;;;;5052657;28;20638;-72
2022/04/15 05:47:20;;;;;;;0.63;0.52;;;13.60;99.90;;;;;;5052530;28;20086;-72
2022/04/15 05:49:45;;;;;;;0.75;0.45;;;13.60;99.90;;;;;;5052704;28;20029;-71
2022/04/15 05:52:11;;;;;;;2.42;1.02;;;13.50;99.90;;;;;;5052672;28;20266;-72
2022/04/15 05:54:37;;;;;;;0.52;0.52;;;13.50;99.90;;;;;;5052510;28;20155;-72
2022/04/15 05:57:03;;;;;;;0.10;0.10;;;13.50;99.90;;;;;;5031408;28;20028;-72
2022/04/15 05:59:29;;;;;;;0.13;0.13;;;13.60;99.90;;;;;;5048557;28;20048;-72
2022/04/15 06:01:55;;;;;;;0.10;0.10;;;13.60;99.90;;;;;;5050295;28;20048;-72
2022/04/15 06:04:20;;;;;;;0.10;0.10;;;13.70;99.90;;;;;;5058976;28;20069;-72
2022/04/15 06:06:47;;;;;;;0.80;0.80;;;13.70;99.90;;;;;;5071969;28;20548;-72
2022/04/15 06:09:13;;;;;;;0.10;0.10;;;13.70;99.90;;;;;;5054345;28;20115;-72
2022/04/15 06:11:41;;;;;;;0.10;0.10;;;13.70;99.90;;;;;;5072337;28;20056;-72
2022/04/15 06:14:07;;;;;;;0.00;0.00;;;13.80;99.90;;;;;;5055292;28;20404;-72
2022/04/15 06:16:37;;;;;;;0.10;0.10;;;13.80;99.90;;;;;;5051794;28;20025;-72
2022/04/15 06:19:04;;;;;;;0.10;0.10;;;13.80;99.90;;;;;;5052200;28;20104;-72
2022/04/15 06:21:31;;;;;;;0.00;0.00;;;13.90;99.90;;;;;;5034446;28;20024;-72
2022/04/15 06:23:57;;;;;;;0.10;0.10;;;13.90;99.90;;;;;;5054133;28;20116;-72
2022/04/15 06:26:23;;;;;;;0.10;0.10;;;13.80;99.90;;;;;;5062876;28;20115;-72
2022/04/15 06:28:48;;;;;;;0.20;0.20;;;13.80;99.90;;;;;;5043053;28;20021;-72
2022/04/15 06:31:14;;;;;;;0.10;0.10;;;13.70;99.90;;;;;;5069403;28;20021;-72
2022/04/15 06:33:41;;;;;;;0.85;0.85;;;13.60;99.90;;;;;;5056188;28;20028;-72
2022/04/15 06:36:07;;;;;;;0.10;0.10;;;13.50;99.90;;;;;;5051753;28;20033;-72
2022/04/15 06:38:33;;;;;;;0.00;0.00;;;13.70;99.90;;;;;;5051927;28;20029;-72
2022/04/15 06:40:58;;;;;;;0.05;0.05;;;13.90;99.90;;;;;;5039148;28;20024;-72
2022/04/15 06:43:24;;;;;;;0.00;0.00;;;14.00;99.90;;;;;;5036020;28;20083;-72
2022/04/15 06:45:50;;;;;;;0.10;0.10;;;14.10;99.90;;;;;;5051490;28;20025;-72
2022/04/15 06:48:16;;;;;;;0.10;0.10;;;14.10;99.90;;;;;;5034006;28;20074;-72
2022/04/15 06:50:42;;;;;;;0.10;0.10;;;14.20;99.90;;;;;;5051850;28;20411;-72
2022/04/15 06:53:07;;;;;;;0.22;0.22;;;14.00;99.90;;;;;;5051752;28;20033;-72
2022/04/15 06:55:33;;;;;;;0.20;0.20;;;13.90;99.90;;;;;;5033507;28;20461;-72
2022/04/15 06:57:59;;;;;;;1.10;0.55;;;13.90;99.90;;;;;;5038992;28;20079;-72
2022/04/15 07:00:25;;;;;;;0.55;0.55;;;14.00;99.90;;;;;;5071743;28;20028;-72
2022/04/15 07:02:51;;;;;;;0.52;0.52;;;14.10;99.90;;;;;;5071638;28;20035;-72
2022/04/15 07:05:17;;;;;;;0.20;0.20;;;14.20;99.90;;;;;;5036916;28;20029;-72
2022/04/15 07:07:43;;;;;;;0.75;0.52;;;14.30;99.90;;;;;;5033689;28;20029;-72
2022/04/15 07:10:10;;;;;;;0.20;0.20;;;14.20;99.90;;;;;;5051450;28;20025;-72
2022/04/15 07:12:37;;;;;;;0.00;0.00;;;14.10;99.90;;;;;;5033533;28;20029;-72
2022/04/15 07:15:04;;;;;;;1.25;1.08;;;14.20;99.90;;;;;;5051518;28;20104;-72
2022/04/15 07:17:30;;;;;;;0.25;0.25;;;14.30;99.90;;;;;;5051294;28;20366;-72
2022/04/15 07:19:56;;;;;;;0.20;0.20;;;14.50;99.90;;;;;;5051921;28;20060;-72
2022/04/15 07:22:21;;;;;;;0.17;0.17;;;14.60;99.90;;;;;;5051457;28;20389;-72
2022/04/15 07:24:48;;;;;;;0.10;0.10;;;14.70;99.90;;;;;;5033519;28;20033;-72
2022/04/15 07:27:15;;;;;;;5.68;2.53;;;14.60;99.90;;;;;;5051146;28;20025;-72
2022/04/15 07:29:41;;;;;;;0.10;0.10;;;14.60;99.90;;;;;;5054844;28;20021;-72
2022/04/15 07:32:07;;;;;;;0.75;0.73;;;14.80;99.90;;;;;;5042262;28;20103;-72
2022/04/15 07:34:34;;;;;;;0.00;0.00;;;15.00;99.90;;;;;;5075259;28;20038;-72
2022/04/15 07:37:03;;;;;;;1.42;0.77;;;15.00;99.90;;;;;;5057075;28;20059;-72
2022/04/15 07:39:29;;;;;;;0.40;0.40;;;15.10;99.90;;;;;;5075004;28;20501;-72
2022/04/15 07:41:55;;;;;;;0.45;0.45;;;15.10;99.90;;;;;;5075035;28;20037;-72
2022/04/15 07:44:21;;;;;;;0.10;0.10;;;15.10;99.90;;;;;;5075071;28;20024;-72
2022/04/15 07:46:47;;;;;;;3.92;1.13;;;14.90;99.90;;;;;;5074591;28;20507;-71
2022/04/15 07:49:14;;;;;;;0.30;0.30;;;14.90;99.90;;;;;;5059301;28;20060;-71
2022/04/15 07:51:39;;;;;;;0.10;0.10;;;14.90;99.90;;;;;;5037298;28;20104;-71
2022/04/15 07:54:06;;;;;;;0.22;0.22;;;14.60;99.90;;;;;;5054845;28;20086;-72
2022/04/15 07:56:33;;;;;;;0.10;0.10;;;14.60;99.90;;;;;;5054584;28;20118;-71
2022/04/15 07:59:00;;;;;;;0.38;0.38;;;14.80;99.90;;;;;;5054762;28;20033;-71
2022/04/15 08:01:29;;;;;;;0.65;0.65;;;14.90;99.90;;;;;;5054935;28;20036;-71
2022/04/15 08:03:56;;;;;;;0.10;0.10;;;14.90;99.90;;;;;;5059866;28;20086;-71
2022/04/15 08:06:23;;;;;;;3.75;1.20;;;15.10;99.90;;;;;;5074193;28;20108;-71
2022/04/15 08:09:00;;;;;;;0.10;0.10;;;15.10;99.90;;;;;;5056576;28;20039;-71
2022/04/15 08:11:27;;;;;;;0.10;0.10;;;15.30;99.90;;;;;;5056777;28;20430;-71
2022/04/15 08:13:54;;;;;;;0.10;0.10;;;15.20;99.90;;;;;;5056463;28;20016;-71
2022/04/15 08:16:21;;;;;;;0.10;0.10;;;15.20;99.90;;;;;;5056174;28;20031;-71
2022/04/15 08:18:48;;;;;;;1.02;0.65;;;15.20;99.90;;;;;;5056343;28;20020;-71
2022/04/15 08:21:14;;;;;;;1.65;1.38;;;15.20;99.90;;;;;;5056010;28;20036;-71
2022/04/15 08:23:40;;;;;;;0.30;0.30;;;15.10;99.90;;;;;;5074217;28;20375;-71
2022/04/15 08:26:06;;;;;;;0.00;0.00;;;15.20;99.90;;;;;;5073935;28;20031;-71
2022/04/15 08:28:31;;;;;;;7.03;3.35;;;15.30;99.90;;;;;;5039591;28;20028;-71
2022/04/15 08:30:57;;;;;;;0.25;0.25;;;15.30;99.90;;;;;;5056129;28;20020;-71
2022/04/15 08:33:23;;;;;;;0.10;0.10;;;15.20;99.90;;;;;;5058345;28;20028;-71
2022/04/15 08:35:49;;;;;;;0.00;0.00;;;15.40;99.90;;;;;;5053462;28;20018;-72
2022/04/15 08:38:15;;;;;;;2.65;1.17;;;15.60;99.90;;;;;;5035084;28;20069;-71
2022/04/15 08:40:46;;;;;;;0.08;0.08;;;15.60;99.90;;;;;;5019539;28;20033;-71
2022/04/15 08:43:11;;;;;;;0.10;0.10;;;15.60;99.90;;;;;;5053562;28;20384;-71
2022/04/15 08:45:41;;;;;;;0.30;0.30;;;15.90;99.90;;;;;;5053255;28;20032;-71
2022/04/15 08:48:08;;;;;;;2.45;1.80;;;16.00;99.90;;;;;;5036160;28;20025;-71
2022/04/15 08:50:34;;;;;;;0.40;0.40;;;16.30;99.90;;;;;;5054131;28;20071;-71
2022/04/15 08:53:02;;;;;;;1.45;0.32;;;16.60;99.90;;;;;;5053938;28;20029;-72
2022/04/15 08:55:29;;;;;;;1.17;1.08;;;16.90;99.90;;;;;;5053888;28;20109;-72
2022/04/15 08:57:56;;;;;;;0.90;0.90;;;17.00;99.90;;;;;;5053720;28;20033;-72
2022/04/15 09:00:23;;;;;;;0.30;0.30;;;17.40;99.90;;;;;;5053565;28;20481;-72
2022/04/15 09:02:54;;;;;;;0.30;0.30;;;17.30;99.90;;;;;;5053430;28;20046;-72
2022/04/15 09:05:28;;;;;;;1.55;0.85;;;17.30;99.90;;;;;;5053258;28;20060;-72
2022/04/15 09:08:04;;;;;;;3.83;2.17;;;17.20;99.90;;;;;;5053664;28;20052;-72
2022/04/15 09:10:33;;;;;;;2.20;1.83;;;17.00;99.90;;;;;;5035581;28;20017;-72
2022/04/15 09:12:59;;;;;;;0.55;0.55;;;17.00;99.90;;;;;;5053292;28;20068;-72
2022/04/15 09:15:25;;;;;;;0.10;0.10;;;16.90;99.90;;;;;;5053314;28;20032;-72
2022/04/15 09:17:52;;;;;;;1.13;1.02;;;16.80;99.90;;;;;;5035207;28;20033;-72
2022/04/15 09:20:19;;;;;;;0.47;0.47;;;16.80;99.90;;;;;;5035442;28;20075;-72
2022/04/15 09:22:46;;;;;;;0.20;0.20;;;17.00;99.90;;;;;;5035455;28;20039;-72
2022/04/15 09:25:13;;;;;;;1.55;1.52;;;17.10;99.90;;;;;;5052913;28;20055;-72
2022/04/15 09:27:39;;;;;;;0.15;0.15;;;17.40;99.90;;;;;;5035152;28;20025;-72
2022/04/15 09:30:06;;;;;;;0.30;0.30;;;17.20;99.90;;;;;;5053028;28;20542;-71
2022/04/15 09:32:32;;;;;;;3.95;2.13;;;17.10;99.90;;;;;;5018561;28;20044;-72
2022/04/15 09:35:06;;;;;;;0.20;0.20;;;16.80;99.90;;;;;;5052956;28;20063;-72
2022/04/15 09:37:42;;;;;;;1.00;0.95;;;16.70;99.90;;;;;;5052682;28;20028;-72
2022/04/15 09:40:12;;;;;;;0.13;0.13;;;16.70;99.90;;;;;;5052799;28;20021;-72
2022/04/15 09:42:58;;;;;;;0.82;0.82;;;16.60;99.90;;;;;;5052620;28;20120;-72
2022/04/15 09:45:27;;;;;;;0.85;0.85;;;17.20;99.90;;;;;;5052662;28;20029;-71
2022/04/15 09:47:57;;;;;;;0.10;0.10;;;17.40;99.90;;;;;;5052474;28;20029;-71
2022/04/15 09:50:36;;;;;;;0.10;0.10;;;17.50;99.90;;;;;;5052537;28;20091;-72
2022/04/15 09:53:13;;;;;;;0.63;0.63;;;17.50;99.90;;;;;;5034506;28;20029;-71
2022/04/15 09:55:44;;;;;;;3.50;1.33;;;18.00;98.40;;;;;;5052265;28;20090;-72
2022/04/15 09:58:12;;;;;;;0.90;0.90;;;18.80;93.40;;;;;;5052838;28;20029;-72
2022/04/15 10:00:39;;;;;;;1.48;0.60;;;19.40;87.00;;;;;;5034550;28;20041;-72
2022/04/15 10:03:11;;;;;;;0.30;0.30;;;20.10;82.60;;;;;;5032190;28;20523;-72
2022/04/15 10:05:38;;;;;;;2.08;1.95;;;20.40;83.20;;;;;;5034211;28;20100;-72
2022/04/15 10:08:05;;;;;;;1.52;1.45;;;20.50;78.90;;;;;;5052301;28;20021;-72
2022/04/15 10:10:31;;;;;;;0.30;0.30;;;20.70;78.00;;;;;;5054899;28;20017;-72
2022/04/15 10:13:04;;;;;;;0.50;0.40;;;20.30;77.60;;;;;;5037633;28;20021;-72
2022/04/15 10:15:32;;;;;;;2.75;1.42;;;20.20;74.50;;;;;;5072066;28;20023;-72
2022/04/15 10:18:01;;;;;;;10.52;2.97;;;20.60;73.30;;;;;;5057059;28;20491;-72
2022/04/15 10:20:29;;;;;;;3.60;2.10;;;20.90;69.30;;;;;;5034275;28;20489;-72
2022/04/15 10:23:00;;;;;;;0.10;0.10;;;21.10;67.80;;;;;;5052101;28;20406;-72
2022/04/15 10:25:27;;;;;;;1.08;0.98;;;21.80;68.20;;;;;;5051845;28;20021;-72
2022/04/15 10:27:53;;;;;;;0.40;0.38;;;22.00;59.50;;;;;;5033927;28;20099;-72
2022/04/15 10:30:21;;;;;;;1.90;0.30;;;22.60;62.10;;;;;;5052139;28;20021;-73
2022/04/15 10:32:55;;;;;;;0.00;0.00;;;22.40;63.30;;;;;;5051841;28;20029;-73
2022/04/15 10:35:23;;;;;;;0.43;0.43;;;22.60;62.00;;;;;;5052114;28;20100;-73
2022/04/15 10:37:58;;;;;;;0.38;0.38;;;23.10;61.20;;;;;;5052019;28;20025;-73
2022/04/15 10:40:27;;;;;;;1.48;0.60;;;23.60;61.50;;;;;;5051978;28;20208;-73
2022/04/15 10:42:53;;;;;;;14.32;3.70;;;22.90;60.00;;;;;;5034068;28;20104;-72
2022/04/15 10:45:34;;;;;;;3.85;1.48;;;22.20;60.80;;;;;;5051931;28;20120;-72
2022/04/15 10:48:01;;;;;;;0.32;0.32;;;21.40;65.90;;;;;;5063612;28;20025;-72
2022/04/15 10:50:29;;;;;;;0.95;0.85;;;20.50;68.90;;;;;;5070139;28;20020;-72
2022/04/15 10:53:27;;;;;;;0.43;0.43;;;20.20;67.30;;;;;;5053610;28;20116;-72
2022/04/15 10:55:53;;;;;;;0.20;0.20;;;20.30;65.70;;;;;;4987440;28;20048;-72
2022/04/15 10:58:21;;;;;;;1.30;0.57;;;21.00;65.00;;;;;;5071868;28;20123;-72
2022/04/15 11:01:18;;;;;;;2.47;1.10;;;21.50;63.60;;;;;;5053752;28;20484;-72
2022/04/15 11:03:55;;;;;;;0.30;0.30;;;21.70;61.50;;;;;;5067599;28;20035;-72
2022/04/15 11:06:26;;;;;;;0.45;0.45;;;22.10;61.50;;;;;;5054626;28;20021;-74
2022/04/15 11:08:52;;;;;;;0.20;0.20;;;21.30;62.80;;;;;;5055910;28;20380;-76
2022/04/15 11:11:32;;;;;;;0.10;0.10;;;20.90;63.40;;;;;;5055918;28;20268;-72
2022/04/15 11:14:00;;;;;;;0.45;0.45;;;20.90;66.80;;;;;;5055408;28;20362;-72
2022/04/15 11:16:40;;;;;;;1.08;0.98;;;20.20;66.50;;;;;;5037433;28;20029;-72
2022/04/15 11:19:08;;;;;;;5.28;1.90;;;19.70;68.20;;;;;;5037645;28;20056;-72
2022/04/15 11:21:37;;;;;;;2.10;0.70;;;19.30;67.30;;;;;;5055526;28;20029;-72
2022/04/15 11:24:08;;;;;;;0.10;0.10;;;19.30;67.70;;;;;;5054997;28;20507;-72
2022/04/15 11:26:37;;;;;;;0.20;0.20;;;19.60;67.00;;;;;;5055178;28;20025;-72
2022/04/15 11:29:05;;;;;;;0.10;0.10;;;20.00;65.80;;;;;;5055382;28;20029;-72
2022/04/15 11:31:39;;;;;;;0.13;0.13;;;20.00;65.30;;;;;;5055379;28;20018;-72
2022/04/15 11:34:20;;;;;;;0.22;0.22;;;20.50;65.10;;;;;;5055392;28;20021;-72
2022/04/15 11:36:47;;;;;;;0.98;0.82;;;20.80;57.30;;;;;;5055017;28;20091;-72
2022/04/15 11:39:15;;;;;;;0.20;0.20;;;20.50;57.80;;;;;;5055319;28;20033;-72
2022/04/15 11:41:46;;;;;;;0.00;0.00;;;20.30;58.20;;;;;;5037309;28;20040;-72
2022/04/15 11:44:13;;;;;;;1.00;0.90;;;19.90;59.10;;;;;;5037182;28;20025;-72
2022/04/15 11:46:40;;;;;;;0.40;0.40;;;19.20;60.00;;;;;;5020380;28;20021;-72
2022/04/15 11:49:18;;;;;;;0.30;0.30;;;18.90;63.20;;;;;;5054848;28;20033;-72
2022/04/15 11:51:52;;;;;;;0.30;0.28;;;18.90;68.30;;;;;;5054988;28;20547;-72
2022/04/15 11:54:23;;;;;;;0.10;0.10;;;18.80;70.00;;;;;;5054896;28;20025;-72
2022/04/15 11:56:54;;;;;;;4.93;2.22;;;18.80;70.00;;;;;;5054761;28;20501;-72
2022/04/15 11:59:20;;;;;;;0.37;0.37;;;18.60;69.10;;;;;;5055042;28;20295;-72
2022/04/15 12:01:46;;;;;;;0.10;0.10;;;18.60;69.30;;;;;;5036833;28;20028;-72
2022/04/15 12:04:12;;;;;;;0.50;0.50;;;18.80;69.70;;;;;;5036970;28;20025;-72
2022/04/15 12:06:41;;;;;;;0.35;0.35;;;18.80;68.40;;;;;;5054365;28;20021;-72
2022/04/15 12:09:11;;;;;;;0.22;0.22;;;18.90;67.60;;;;;;5054625;28;20496;-72
2022/04/15 12:11:38;;;;;;;0.10;0.10;;;18.80;67.90;;;;;;5054773;28;20380;-72
2022/04/15 12:14:06;;;;;;;0.10;0.10;;;18.70;66.70;;;;;;5035964;28;20476;-72
2022/04/15 12:16:34;;;;;;;0.40;0.40;;;18.60;65.00;;;;;;5054297;28;20025;-72
2022/04/15 12:19:02;;;;;;;0.20;0.20;;;18.80;66.40;;;;;;5054537;28;20029;-72
2022/04/15 12:21:29;;;;;;;0.20;0.20;;;18.90;65.40;;;;;;5054395;28;20033;-72
2022/04/15 12:24:01;;;;;;;0.88;0.55;;;19.00;65.60;;;;;;5054341;28;20510;-72
2022/04/15 12:26:27;;;;;;;0.63;0.63;;;18.60;65.80;;;;;;5053914;28;20037;-73
2022/04/15 12:31:47;;;;;;;1.52;0.70;;;18.60;67.30;;;;;;5054248;28;20108;-72
2022/04/15 12:34:14;;;;;;;1.20;1.00;;;18.50;67.70;;;;;;5054097;28;20053;-72
2022/04/15 12:36:41;;;;;;;0.25;0.25;;;18.70;68.80;;;;;;5035903;28;20033;-72
2022/04/15 12:39:07;;;;;;;0.17;0.17;;;19.40;67.50;;;;;;5054165;28;20432;-72
2022/04/15 12:41:37;;;;;;;1.55;0.73;;;19.70;66.20;;;;;;5054398;28;20053;-72
2022/04/15 12:44:23;;;;;;;0.57;0.45;;;19.80;64.50;;;;;;5053968;28;20025;-72
2022/04/15 12:47:00;;;;;;;0.00;0.00;;;20.10;62.50;;;;;;5053894;28;20060;-72
2022/04/15 12:49:28;;;;;;;0.00;0.00;;;20.00;60.20;;;;;;5036086;28;20029;-72
2022/04/15 12:52:18;;;;;;;0.47;0.47;;;20.00;62.90;;;;;;5053681;28;20028;-72
2022/04/15 12:55:03;;;;;;;0.35;0.35;;;20.10;61.60;;;;;;5053880;28;20029;-73